Time;durP1;ratioP1;P1;durP2;ratioP2;P2;SDS_P1;SDS_P2;PMS_P1;PMS_P2;Temp;Humidity;BMP_temperature;BMP_pressure;BME280_temperature;BME280_humidity;BME280_pressure;Samples;Min_cycle;Max_cycle;Signal;HPM_P1;HPM_P2
2023/06/09 06:39:24;;;;;;;9.38;6.38;;;;;;;19.05;62.95;99549.75;1086876;54;20006;-79
2023/06/09 06:40:26;;;;;;;10.23;6.55;;;;;;;19.11;62.68;99552.44;1082329;54;20038;-77
2023/06/09 06:41:29;;;;;;;8.38;6.35;;;;;;;19.20;62.28;99547.63;1082979;47;20042;-78
2023/06/09 06:42:33;;;;;;;9.27;7.43;;;;;;;19.29;62.36;99550.94;1083848;54;20035;-82
2023/06/09 06:43:51;;;;;;;9.02;6.32;;;;;;;19.31;62.20;99555.13;1083260;47;20118;-79
2023/06/09 06:44:52;;;;;;;8.75;6.57;;;;;;;19.33;62.19;99557.59;1083567;54;20035;-77
2023/06/09 06:45:56;;;;;;;7.88;7.03;;;;;;;19.41;62.15;99546.50;1082648;54;20049;-75
2023/06/09 06:46:57;;;;;;;8.65;6.40;;;;;;;19.52;61.96;99552.31;1084142;54;20035;-77
2023/06/09 06:48:01;;;;;;;8.10;6.45;;;;;;;19.62;61.54;99549.97;1083360;54;20039;-76
2023/06/09 06:49:03;;;;;;;9.13;6.40;;;;;;;19.72;61.50;99550.34;1083485;39;20433;-76
2023/06/09 06:50:08;;;;;;;7.57;6.40;;;;;;;19.84;61.06;99544.22;1083177;54;20038;-77
2023/06/09 06:51:12;;;;;;;7.72;6.32;;;;;;;19.85;60.79;99540.44;1083113;54;20064;-77
2023/06/09 06:52:13;;;;;;;9.95;7.57;;;;;;;19.62;61.00;99550.78;1083422;54;20039;-78
2023/06/09 06:53:17;;;;;;;9.23;7.20;;;;;;;19.59;61.03;99542.25;1082957;54;20561;-79
2023/06/09 06:54:18;;;;;;;8.73;7.22;;;;;;;19.59;61.45;99555.81;1082799;54;20576;-77
2023/06/09 06:55:24;;;;;;;9.27;7.85;;;;;;;19.58;61.07;99556.84;1082877;54;20084;-76
2023/06/09 06:56:25;;;;;;;11.05;7.30;;;;;;;19.64;61.40;99550.59;1083204;54;20043;-79
2023/06/09 06:57:30;;;;;;;9.27;7.78;;;;;;;19.67;61.26;99560.16;1083861;54;20089;-78
2023/06/09 06:58:31;;;;;;;8.73;7.03;;;;;;;19.73;61.00;99564.72;1084713;54;20038;-78
2023/06/09 06:59:35;;;;;;;10.90;7.43;;;;;;;19.82;60.83;99562.59;1084226;54;20034;-76
2023/06/09 07:00:36;;;;;;;9.02;6.60;;;;;;;19.99;60.02;99558.34;1082786;47;20049;-76
2023/06/09 07:01:40;;;;;;;8.32;6.60;;;;;;;20.04;60.11;99558.50;1083536;54;20081;-76
2023/06/09 07:02:43;;;;;;;9.30;7.47;;;;;;;20.02;60.29;99552.47;1082723;54;20101;-76
2023/06/09 07:03:46;;;;;;;9.00;7.18;;;;;;;20.13;59.90;99561.78;1083836;47;20154;-79
2023/06/09 07:04:50;;;;;;;10.18;6.68;;;;;;;20.10;59.96;99554.94;1084541;54;20059;-79
2023/06/09 07:05:52;;;;;;;9.40;6.88;;;;;;;20.19;59.68;99562.78;1083565;54;20042;-77
2023/06/09 07:06:55;;;;;;;13.07;6.90;;;;;;;20.30;59.72;99559.38;1082512;47;20086;-77
2023/06/09 07:07:56;;;;;;;8.93;6.70;;;;;;;20.53;59.15;99557.91;1083725;54;20057;-77
2023/06/09 07:09:00;;;;;;;8.38;6.63;;;;;;;20.64;58.74;99554.47;1084322;54;20071;-77
2023/06/09 07:10:01;;;;;;;9.02;6.90;;;;;;;20.66;58.78;99557.81;1084311;54;20053;-78
2023/06/09 07:11:09;;;;;;;9.55;6.82;;;;;;;20.70;58.66;99559.00;1084758;54;20050;-79
2023/06/09 07:12:10;;;;;;;8.23;7.07;;;;;;;20.59;58.63;99559.75;1083979;46;20169;-77
2023/06/09 07:13:14;;;;;;;8.77;7.03;;;;;;;20.39;59.06;99555.34;1082512;54;20042;-77
2023/06/09 07:14:15;;;;;;;9.40;7.10;;;;;;;20.41;59.26;99553.22;1083497;39;20462;-78
2023/06/09 07:15:19;;;;;;;8.25;6.95;;;;;;;20.54;58.80;99548.72;1082817;54;20122;-78
2023/06/09 07:16:20;;;;;;;9.00;7.30;;;;;;;20.62;58.64;99551.16;1083087;54;20057;-76
2023/06/09 07:17:24;;;;;;;8.50;6.88;;;;;;;20.72;58.50;99551.47;1082272;47;20093;-76
2023/06/09 07:18:27;;;;;;;9.98;6.25;;;;;;;20.86;58.07;99552.22;1083399;39;20422;-78
2023/06/09 07:19:28;;;;;;;8.73;6.32;;;;;;;21.08;57.64;99559.09;1082498;54;20031;-76
2023/06/09 07:20:32;;;;;;;6.80;5.68;;;;;;;21.25;57.32;99549.28;1082361;54;20042;-76
2023/06/09 07:21:33;;;;;;;7.00;6.03;;;;;;;21.40;57.02;99553.50;1082040;54;20037;-75
2023/06/09 07:22:36;;;;;;;8.18;6.63;;;;;;;21.37;56.97;99551.22;1082751;39;20566;-76
2023/06/09 07:23:37;;;;;;;7.30;6.45;;;;;;;21.53;56.22;99558.78;1082002;54;20039;-75
2023/06/09 07:24:41;;;;;;;8.93;6.35;;;;;;;21.63;56.18;99555.53;1082165;47;20727;-78
2023/06/09 07:25:43;;;;;;;6.85;5.85;;;;;;;21.72;55.65;99543.28;1083297;47;20735;-78
2023/06/09 07:26:49;;;;;;;7.35;5.65;;;;;;;21.64;55.07;99557.19;1082510;47;20034;-81
2023/06/09 07:27:50;;;;;;;7.22;5.80;;;;;;;21.78;55.43;99558.66;1084804;39;20803;-79
2023/06/09 07:28:54;;;;;;;6.78;5.75;;;;;;;21.91;54.77;99546.78;1086753;46;20037;-82
2023/06/09 07:29:55;;;;;;;7.13;5.90;;;;;;;22.03;54.68;99543.25;1086575;54;20035;-83
2023/06/09 07:30:59;;;;;;;9.02;6.53;;;;;;;21.74;55.14;99553.91;1087079;47;20114;-85
2023/06/09 07:33:05;;;;;;;8.88;6.38;;;;;;;21.87;54.93;99552.91;1087021;54;20065;-82
2023/06/09 07:34:07;;;;;;;8.88;6.47;;;;;;;21.87;54.98;99550.19;1086376;54;20090;-80
2023/06/09 07:35:12;;;;;;;6.55;5.38;;;;;;;22.09;54.66;99548.59;1086961;54;20042;-80
2023/06/09 07:36:14;;;;;;;8.98;5.53;;;;;;;22.17;54.34;99543.88;1085064;54;20043;-79
2023/06/09 07:37:18;;;;;;;6.97;5.35;;;;;;;22.23;54.28;99543.78;1085958;47;20470;-80
2023/06/09 07:38:21;;;;;;;9.13;6.00;;;;;;;22.35;54.13;99543.78;1085737;54;20066;-81
2023/06/09 07:39:25;;;;;;;6.40;5.45;;;;;;;22.47;53.70;99538.41;1086088;54;20050;-79
2023/06/09 07:40:28;;;;;;;7.25;5.70;;;;;;;22.56;53.68;99541.59;1087107;54;20069;-83
2023/06/09 07:41:31;;;;;;;6.55;5.35;;;;;;;22.56;53.60;99544.31;1086803;54;20647;-80
2023/06/09 07:42:36;;;;;;;9.95;5.60;;;;;;;22.57;53.45;99543.25;1087357;54;20033;-83
2023/06/09 07:43:40;;;;;;;7.75;5.88;;;;;;;22.78;52.92;99539.09;1087228;47;20065;-84
2023/06/09 07:44:47;;;;;;;6.45;5.65;;;;;;;22.84;52.63;99543.59;1087230;47;20053;-84
2023/06/09 07:45:48;;;;;;;6.60;5.35;;;;;;;22.94;52.71;99539.44;1086660;54;20030;-81
2023/06/09 07:46:55;;;;;;;7.28;6.03;;;;;;;22.74;52.58;99538.75;1087011;54;20086;-87
2023/06/09 07:50:25;;;;;;;7.80;6.00;;;;;;;22.83;52.04;99541.94;1086813;47;20049;-83
2023/06/09 07:51:28;;;;;;;7.45;5.90;;;;;;;22.95;52.11;99549.28;1087038;54;20137;-81
2023/06/09 07:52:36;;;;;;;6.45;5.55;;;;;;;22.89;51.54;99542.91;1086769;54;20067;-80
2023/06/09 07:53:38;;;;;;;6.50;5.43;;;;;;;22.98;51.73;99537.88;1086816;46;20026;-84
2023/06/09 07:54:43;;;;;;;7.60;5.68;;;;;;;22.94;51.76;99537.53;1086877;54;20041;-84
2023/06/09 07:55:47;;;;;;;6.85;5.47;;;;;;;22.94;51.61;99542.19;1084813;54;20125;-83
2023/06/09 07:56:48;;;;;;;6.47;5.00;;;;;;;23.18;51.41;99538.38;1085843;47;20030;-80
2023/06/09 07:57:55;;;;;;;6.18;4.80;;;;;;;23.32;50.88;99533.47;1086029;54;20094;-84
2023/06/09 07:58:57;;;;;;;6.68;5.47;;;;;;;23.45;50.87;99532.34;1085302;54;20101;-80
2023/06/09 08:00:01;;;;;;;7.80;5.60;;;;;;;23.61;50.73;99525.31;1085806;47;20079;-80
2023/06/09 08:01:03;;;;;;;5.88;5.10;;;;;;;23.82;50.24;99526.50;1086709;47;20061;-81
2023/06/09 08:02:07;;;;;;;6.75;5.20;;;;;;;24.04;49.75;99528.56;1086024;47;20060;-81
2023/06/09 08:03:11;;;;;;;5.97;4.57;;;;;;;24.13;49.65;99524.34;1084461;54;20042;-79
2023/06/09 08:04:12;;;;;;;8.18;4.80;;;;;;;24.25;49.19;99526.19;1084151;47;20108;-79
2023/06/09 08:05:16;;;;;;;7.28;4.90;;;;;;;24.32;49.01;99524.09;1085547;54;20042;-78
2023/06/09 08:06:17;;;;;;;9.27;5.40;;;;;;;24.08;49.22;99524.28;1086121;54;20129;-81
2023/06/09 08:07:21;;;;;;;6.38;5.07;;;;;;;24.04;49.34;99530.47;1085708;47;20022;-78
2023/06/09 08:08:22;;;;;;;6.88;5.00;;;;;;;24.10;49.28;99522.09;1086517;54;20098;-82
2023/06/09 08:09:26;;;;;;;6.88;5.05;;;;;;;23.91;49.29;99521.50;1086725;47;20039;-80
2023/06/09 08:10:27;;;;;;;8.85;5.35;;;;;;;23.93;48.92;99518.50;1086798;54;20034;-79
2023/06/09 08:11:31;;;;;;;6.50;4.43;;;;;;;23.97;48.54;99517.78;1086162;46;20062;-82
2023/06/09 08:12:32;;;;;;;5.97;4.55;;;;;;;24.22;48.09;99524.78;1086586;54;20135;-80
2023/06/09 08:13:38;;;;;;;6.32;4.70;;;;;;;24.10;47.84;99522.09;1089350;39;20531;-79
2023/06/09 08:14:39;;;;;;;5.63;4.20;;;;;;;24.34;47.84;99521.97;1086933;54;20027;-76
2023/06/09 08:15:44;;;;;;;5.47;4.25;;;;;;;24.38;47.79;99522.28;1088730;39;20553;-80
2023/06/09 08:16:45;;;;;;;7.07;4.85;;;;;;;24.16;47.92;99514.00;1086790;54;20038;-80
2023/06/09 08:17:50;;;;;;;5.75;3.90;;;;;;;24.17;47.95;99519.22;1087071;54;20419;-78
2023/06/09 08:18:51;;;;;;;5.50;4.30;;;;;;;24.21;47.83;99517.66;1087077;54;20042;-78
2023/06/09 08:19:55;;;;;;;7.53;4.40;;;;;;;23.93;48.33;99510.31;1086430;47;20560;-78
2023/06/09 08:20:56;;;;;;;6.05;4.22;;;;;;;24.13;47.70;99515.34;1086485;47;20074;-79
2023/06/09 08:22:01;;;;;;;7.95;4.22;;;;;;;24.32;47.40;99515.91;1086658;47;20038;-82
2023/06/09 08:23:02;;;;;;;6.90;4.05;;;;;;;24.30;47.05;99516.16;1086156;54;20041;-79
2023/06/09 08:24:05;;;;;;;5.22;4.07;;;;;;;24.39;46.92;99513.84;1085689;54;20042;-76
2023/06/09 08:25:09;;;;;;;6.40;3.97;;;;;;;24.72;46.20;99514.91;1084979;47;20074;-84
2023/06/09 08:26:14;;;;;;;5.43;3.97;;;;;;;24.79;45.97;99508.44;1086462;54;20038;-83
2023/06/09 08:27:15;;;;;;;6.03;3.92;;;;;;;24.58;46.29;99510.84;1086852;47;20023;-81
2023/06/09 08:28:20;;;;;;;6.25;3.83;;;;;;;24.66;45.87;99495.94;1088353;39;20647;-80
2023/06/09 08:29:28;;;;;;;14.63;3.90;;;;;;;24.89;45.77;99506.66;1086814;47;20038;-83
2023/06/09 08:30:29;;;;;;;5.28;3.92;;;;;;;25.14;45.15;99502.63;1086661;54;20038;-83
2023/06/09 08:31:37;;;;;;;5.20;3.72;;;;;;;25.28;45.05;99503.06;1086839;54;20034;-81
2023/06/09 08:32:39;;;;;;;5.85;3.88;;;;;;;25.51;44.10;99503.88;1086092;47;20103;-82
2023/06/09 08:33:44;;;;;;;4.80;3.42;;;;;;;25.56;43.34;99509.41;1086499;47;20124;-84
2023/06/09 08:34:45;;;;;;;5.00;3.30;;;;;;;25.61;42.71;99495.78;1086751;54;20667;-83
2023/06/09 08:35:49;;;;;;;9.23;3.13;;;;;;;25.56;42.47;99495.72;1086698;39;21139;-82
2023/06/09 08:36:50;;;;;;;4.97;3.22;;;;;;;25.53;42.48;99498.97;1087496;46;20045;-79
2023/06/09 08:37:57;;;;;;;4.55;3.10;;;;;;;25.79;41.41;99508.28;1086767;47;20189;-83
2023/06/09 08:39:02;;;;;;;4.60;3.10;;;;;;;25.70;42.17;99505.16;1085904;47;20057;-78
2023/06/09 08:40:07;;;;;;;4.80;3.20;;;;;;;25.80;41.74;99498.13;1085878;47;20038;-79
2023/06/09 08:41:13;;;;;;;5.00;2.88;;;;;;;25.97;41.68;99500.75;1086614;39;20801;-79
2023/06/09 08:42:25;;;;;;;4.20;3.00;;;;;;;26.13;41.16;99490.81;1085609;54;20034;-82
2023/06/09 08:43:27;;;;;;;6.93;3.50;;;;;;;26.10;40.91;99491.31;1085893;47;20115;-80
2023/06/09 08:44:40;;;;;;;5.78;3.50;;;;;;;25.85;41.04;99490.00;1086277;47;20123;-79
2023/06/09 08:47:55;;;;;;;6.35;3.17;;;;;;;26.21;39.95;99489.50;1086681;46;20034;-79
2023/06/09 08:49:04;;;;;;;4.40;2.97;;;;;;;26.35;40.08;99484.41;1087261;39;20616;-84
2023/06/09 08:50:21;;;;;;;;;;;;;;;;;;;;;
2023/06/09 08:51:43;;;;;;;6.28;2.75;;;;;;;26.12;40.45;99479.00;1086449;47;20022;-82
2023/06/09 08:52:46;;;;;;;4.45;3.00;;;;;;;26.45;39.91;99466.09;1086671;47;20103;-84
2023/06/09 08:53:56;;;;;;;5.85;2.85;;;;;;;26.72;39.48;99475.31;1086856;47;20100;-83
2023/06/09 08:55:05;;;;;;;4.55;3.13;;;;;;;26.54;39.37;99468.34;1087298;47;20037;-85
2023/06/09 08:56:15;;;;;;;5.38;3.38;;;;;;;26.25;39.67;99464.06;1087389;39;20708;-81
2023/06/09 08:57:20;;;;;;;5.88;3.67;;;;;;;26.43;39.55;99473.75;1086987;47;20057;-83
2023/06/09 08:58:30;;;;;;;4.35;3.08;;;;;;;26.60;39.62;99473.59;1087308;46;20069;-83
2023/06/09 08:59:34;;;;;;;5.30;3.33;;;;;;;26.51;39.30;99477.09;1086879;47;20031;-82
2023/06/09 09:00:41;;;;;;;4.78;3.17;;;;;;;26.66;38.82;99470.88;1086882;47;20038;-84
2023/06/09 09:04:16;;;;;;;5.20;3.25;;;;;;;26.87;37.91;99475.41;1084664;54;20078;-84
2023/06/09 09:05:20;;;;;;;4.75;3.28;;;;;;;27.00;37.81;99474.09;1085551;54;20037;31
2023/06/09 09:06:22;;;;;;;4.93;3.00;;;;;;;27.11;37.65;99480.47;1093924;39;20772;-83
2023/06/09 09:12:23;;;;;;;7.45;4.10;;;;;;;26.31;39.22;99481.34;1085318;39;20858;31
2023/06/09 09:13:34;;;;;;;5.82;3.88;;;;;;;26.49;38.84;99482.84;1075348;47;21621;-85
2023/06/09 09:14:48;;;;;;;5.55;3.83;;;;;;;26.88;37.28;99479.81;1074340;47;21209;-83
2023/06/09 09:15:56;;;;;;;5.07;3.60;;;;;;;26.86;37.64;99479.25;1087582;54;20035;-83
2023/06/09 09:17:11;;;;;;;4.07;3.10;;;;;;;26.87;37.79;99480.88;1093140;39;20669;-83
2023/06/09 09:18:12;;;;;;;4.55;3.30;;;;;;;27.16;37.50;99474.16;1087120;47;20026;-82
2023/06/09 09:20:34;;;;;;;5.22;3.53;;;;;;;27.07;37.76;99477.41;1088291;54;20011;-84
2023/06/09 09:21:41;;;;;;;6.47;3.65;;;;;;;27.14;37.91;99474.41;1087255;47;20026;-82
2023/06/09 09:22:55;;;;;;;4.68;3.47;;;;;;;27.29;37.51;99490.09;1087018;47;20032;-80
2023/06/09 09:24:29;;;;;;;;;;;;;;;;;;;;;
2023/06/09 09:26:29;;;;;;;;;;;;;;;;;;;;;
2023/06/09 09:30:14;;;;;;;4.90;3.33;;;;;;;27.17;36.92;99484.84;1088047;47;20313;-84
2023/06/09 09:42:53;;;;;;;5.00;3.30;;;;;;;27.95;34.84;99466.63;1087439;54;20034;-82
2023/06/09 09:43:56;;;;;;;5.97;3.50;;;;;;;27.90;35.12;99466.66;1087506;47;20023;-83
2023/06/09 09:50:26;;;;;;;5.25;3.65;;;;;;;27.68;34.89;99470.47;1086712;54;21441;-82
2023/06/09 09:51:31;;;;;;;5.35;3.38;;;;;;;27.95;34.91;99466.63;1086704;47;20026;-82
2023/06/09 09:52:50;;;;;;;;;;;;;;;;;;;;;
2023/06/09 09:54:11;;;;;;;5.50;3.40;;;;;;;28.13;34.61;99454.31;1086690;47;20027;-82
2023/06/09 09:55:28;;;;;;;;;;;;;;;;;;;;;
2023/06/09 09:56:45;;;;;;;5.93;3.92;;;;;;;28.25;34.71;99455.94;1087268;54;21049;-82
2023/06/09 09:57:51;;;;;;;5.85;3.42;;;;;;;28.25;34.81;99461.41;1087204;47;20023;-83
2023/06/09 09:59:02;;;;;;;5.90;3.83;;;;;;;28.26;34.55;99457.56;1087201;46;20057;-83
2023/06/09 10:00:18;;;;;;;;;;;;;;;;;;;;;
2023/06/09 10:01:46;;;;;;;6.28;3.50;;;;;;;28.27;34.69;99459.22;1088314;46;20139;-82
2023/06/09 10:03:05;;;;;;;4.80;3.42;;;;;;;28.31;34.61;99457.59;1087125;54;20109;-84
2023/06/09 10:04:29;;;;;;;4.53;3.20;;;;;;;28.33;34.80;99447.94;1086880;47;20051;-82
2023/06/09 10:09:23;;;;;;;4.88;3.65;;;;;;;28.31;35.14;99450.16;1087262;47;20039;-83
2023/06/09 10:09:49;;;;;;;5.38;3.30;;;;;;;28.38;34.96;99454.56;1087062;54;20027;-81
2023/06/09 10:20:28;;;;;;;6.13;3.40;;;;;;;28.66;33.76;99447.59;1088764;54;20348;-82
2023/06/09 10:21:49;;;;;;;4.50;3.40;;;;;;;28.62;33.54;99455.59;1088637;47;20137;-83
2023/06/09 10:23:02;;;;;;;5.20;3.08;;;;;;;28.44;34.21;99431.44;1088504;54;20030;-83
2023/06/09 10:24:07;;;;;;;5.00;3.38;;;;;;;28.82;33.58;99436.56;1088842;46;20030;-82
2023/06/09 10:54:56;;;;;;;;;;;;;;;;;;;;;
2023/06/09 11:03:44;;;;;;;5.13;2.95;;;;;;;29.37;31.35;99409.06;1083234;54;20015;31
2023/06/09 11:06:15;;;;;;;4.40;2.63;;;;;;;29.83;30.06;99396.88;1087105;54;20270;31
2023/06/09 11:07:21;;;;;;;3.95;2.75;;;;;;;29.86;30.00;99416.41;1090231;38;20680;-86
2023/06/09 11:10:53;;;;;;;4.60;2.97;;;;;;;30.03;30.02;99407.75;1088639;54;20010;31
2023/06/09 11:11:57;;;;;;;3.88;2.53;;;;;;;30.17;29.90;99405.13;1080461;46;20042;-85
2023/06/09 11:13:06;;;;;;;6.10;3.15;;;;;;;30.07;29.54;99407.16;1086489;46;20015;31
2023/06/09 11:17:16;;;;;;;5.07;2.42;;;;;;;29.43;30.58;99402.41;1093070;38;20683;-86
2023/06/09 11:19:29;;;;;;;4.63;3.00;;;;;;;29.23;30.41;99398.69;1070548;54;20504;31
2023/06/09 11:20:37;;;;;;;4.07;2.58;;;;;;;29.24;30.69;99410.50;1079688;46;20107;-84
2023/06/09 11:22:04;;;;;;;3.70;2.63;;;;;;;29.30;30.86;99398.34;1088618;46;20050;-84
2023/06/09 11:24:10;;;;;;;4.18;2.45;;;;;;;28.79;30.69;99407.72;1089414;54;20077;-85
2023/06/09 11:25:33;;;;;;;4.43;2.58;;;;;;;28.63;30.71;99398.66;1089289;54;20030;-83
2023/06/09 11:27:45;;;;;;;4.35;2.53;;;;;;;28.55;30.74;99404.75;1087984;54;20018;-84
2023/06/09 11:28:48;;;;;;;5.55;3.03;;;;;;;28.53;30.88;99406.97;1087887;39;20354;-84
2023/06/09 11:30:11;;;;;;;4.85;2.88;;;;;;;28.60;30.26;99404.75;1087361;47;20026;-85
2023/06/09 11:31:12;;;;;;;7.60;3.13;;;;;;;28.60;30.10;99404.75;1087354;47;20026;-87
2023/06/09 11:32:19;;;;;;;4.00;2.65;;;;;;;28.42;30.02;99401.50;1087225;54;20058;-85
2023/06/09 11:33:40;;;;;;;4.28;2.58;;;;;;;28.30;30.22;99403.72;1090665;39;20871;-82
2023/06/09 11:34:55;;;;;;;4.38;2.60;;;;;;;28.36;30.76;99402.59;1087029;47;20027;-84
2023/06/09 11:36:43;;;;;;;4.40;2.80;;;;;;;28.58;30.07;99398.69;1087031;47;20764;-85
2023/06/09 11:39:31;;;;;;;4.70;2.70;;;;;;;28.61;30.49;99400.91;1087833;54;20026;-83
2023/06/09 11:40:41;;;;;;;4.03;2.88;;;;;;;28.59;30.53;99398.41;1087422;47;20031;-85
2023/06/09 11:42:10;;;;;;;4.53;2.67;;;;;;;28.27;30.72;99398.78;1087487;47;20034;-84
2023/06/09 11:43:59;;;;;;;3.40;2.10;;;;;;;28.36;30.72;99394.34;1087309;47;20034;-84
2023/06/09 11:46:24;;;;;;;3.95;2.80;;;;;;;28.30;31.27;99381.75;1076138;46;20047;-87
2023/06/09 11:49:06;;;;;;;5.88;2.90;;;;;;;28.34;31.45;99393.81;1088001;54;20007;-84
2023/06/09 11:50:12;;;;;;;5.20;2.85;;;;;;;28.40;31.44;99383.63;1087876;54;20053;-83
2023/06/09 11:51:18;;;;;;;5.40;3.30;;;;;;;28.36;31.62;99385.31;1087293;47;20113;-84
2023/06/09 11:52:25;;;;;;;4.35;2.70;;;;;;;28.23;31.40;99393.03;1087096;47;20113;-80
2023/06/09 11:53:26;;;;;;;5.30;3.40;;;;;;;28.19;31.47;99386.44;1087425;47;20225;-84
2023/06/09 11:54:46;;;;;;;4.70;3.10;;;;;;;28.11;31.69;99387.84;1087180;47;20098;-84
2023/06/09 11:57:02;;;;;;;5.20;2.85;;;;;;;27.99;32.22;99381.75;1087511;47;20310;-84
2023/06/09 11:58:09;;;;;;;4.70;2.95;;;;;;;28.18;31.93;99382.88;1088258;39;20763;-83
2023/06/09 11:59:36;;;;;;;5.82;3.15;;;;;;;28.25;31.31;99388.06;1087412;47;20042;-82
2023/06/09 12:00:51;;;;;;;6.90;2.80;;;;;;;28.44;31.19;99377.28;1087199;47;20880;-84
2023/06/09 12:01:55;;;;;;;4.57;2.88;;;;;;;28.39;31.30;99371.81;1087251;47;20051;-83
2023/06/09 12:03:00;;;;;;;4.75;3.00;;;;;;;28.16;31.53;99365.03;1087767;54;20054;-83
2023/06/09 12:05:13;;;;;;;4.55;2.60;;;;;;;28.09;32.13;99379.03;1079556;39;20202;31
2023/06/09 12:07:26;;;;;;;5.15;3.20;;;;;;;28.12;32.69;99362.00;1079654;54;20042;31
2023/06/09 12:10:07;;;;;;;4.68;3.22;;;;;;;28.22;32.69;99374.06;1082328;54;20030;-86
2023/06/09 12:12:21;;;;;;;5.35;2.90;;;;;;;28.30;32.47;99377.06;1068618;54;20030;31
2023/06/09 12:15:57;;;;;;;4.85;2.80;;;;;;;28.08;32.24;99374.63;1076004;47;21277;-86
2023/06/09 12:20:38;;;;;;;5.50;3.50;;;;;;;27.88;32.56;99364.50;1078899;39;21594;31
2023/06/09 12:21:40;;;;;;;4.53;3.10;;;;;;;28.11;32.61;99371.34;1067544;54;20928;31
2023/06/09 12:22:46;;;;;;;4.93;3.10;;;;;;;28.28;31.84;99365.53;1067912;46;21722;31
2023/06/09 12:23:49;;;;;;;4.70;2.78;;;;;;;28.37;31.33;99367.72;1067412;46;20732;31
2023/06/09 12:25:17;;;;;;;3.97;2.60;;;;;;;28.46;30.48;99361.34;1067876;54;21042;31
2023/06/09 12:27:41;;;;;;;4.60;2.50;;;;;;;28.57;30.67;99364.06;1070939;54;20418;31
2023/06/09 12:30:00;;;;;;;4.80;2.90;;;;;;;28.41;30.92;99355.88;1071971;47;21283;-85
2023/06/09 12:32:13;;;;;;;4.80;2.80;;;;;;;28.21;31.78;99347.69;1073649;39;21692;31
2023/06/09 12:36:06;;;;;;;4.82;2.50;;;;;;;28.56;30.58;99352.25;1086100;54;20090;-83
2023/06/09 12:37:12;;;;;;;3.83;2.50;;;;;;;28.59;30.47;99357.16;1087536;47;20029;-84
2023/06/09 12:38:22;;;;;;;4.20;2.75;;;;;;;28.66;30.43;99345.06;1087572;47;20062;-85
2023/06/09 12:40:45;;;;;;;4.10;2.63;;;;;;;28.74;30.04;99353.56;1087472;54;20026;-84
2023/06/09 12:41:51;;;;;;;4.25;2.70;;;;;;;28.76;29.83;99350.53;1085802;47;20119;31
2023/06/09 12:45:41;;;;;;;5.78;2.95;;;;;;;28.31;30.42;99355.91;1087738;47;19965;-85
2023/06/09 12:48:27;;;;;;;4.47;2.97;;;;;;;28.32;30.09;99352.88;1087192;39;21467;-86
2023/06/09 12:52:26;;;;;;;4.43;2.83;;;;;;;28.28;30.01;99342.72;1087726;47;20034;-84
2023/06/09 12:53:28;;;;;;;4.00;2.53;;;;;;;28.24;29.67;99342.47;1088018;54;20018;-84
2023/06/09 13:01:00;;;;;;;;;;;;;;;;;;;;;
2023/06/09 13:02:23;;;;;;;7.07;2.92;;;;;;;28.64;29.13;99329.66;1083687;46;20029;-85
2023/06/09 13:17:09;;;;;;;4.13;2.80;;;;;;;28.60;30.16;99325.81;1089651;46;20023;-84
2023/06/09 13:19:26;;;;;;;5.53;3.10;;;;;;;28.45;30.10;99323.97;1079525;54;20898;-84
2023/06/09 13:20:33;;;;;;;6.35;3.25;;;;;;;28.23;29.88;99335.31;1083455;54;20022;31
2023/06/09 13:22:45;;;;;;;5.40;2.95;;;;;;;28.52;29.60;99325.63;1087966;54;20038;-86
2023/06/09 13:25:09;;;;;;;3.75;2.45;;;;;;;28.87;28.90;99326.56;1074448;54;21055;31
2023/06/09 13:29:00;;;;;;;4.93;3.13;;;;;;;28.95;29.03;99320.44;1086367;47;20157;-86
2023/06/09 13:30:13;;;;;;;3.83;2.50;;;;;;;29.11;28.95;99324.72;1079334;47;21015;31
2023/06/09 13:39:31;;;;;;;5.30;3.20;;;;;;;29.19;28.47;99325.25;1081956;54;20037;31
2023/06/09 13:40:53;;;;;;;4.55;3.10;;;;;;;29.27;27.89;99321.88;1071394;54;21229;31
2023/06/09 13:41:58;;;;;;;4.50;3.00;;;;;;;29.33;28.02;99319.94;1072308;31;22034;31
2023/06/09 13:44:47;;;;;;;6.70;2.97;;;;;;;29.31;27.62;99308.38;1087579;54;20022;-83
2023/06/09 13:46:10;;;;;;;5.30;3.13;;;;;;;28.92;28.18;99321.00;1087375;47;20042;-84
2023/06/09 13:47:12;;;;;;;5.78;3.00;;;;;;;28.94;28.30;99318.81;1087391;47;20026;-83
2023/06/09 13:51:04;;;;;;;4.78;2.90;;;;;;;29.07;28.16;99312.69;1088764;54;20074;-85
2023/06/09 13:57:44;;;;;;;6.90;3.20;;;;;;;29.11;28.01;99301.91;1070175;54;20097;31
2023/06/09 14:10:03;;;;;;;4.95;2.75;;;;;;;29.49;27.54;99295.84;1087704;54;20078;-85
2023/06/09 14:15:32;;;;;;;4.45;3.03;;;;;;;29.73;26.60;99290.38;1083687;54;20022;-84
2023/06/09 14:19:17;;;;;;;4.10;2.45;;;;;;;29.84;27.08;99297.44;1076923;54;20874;-88
2023/06/09 14:28:15;;;;;;;6.63;4.47;;;;;;;31.39;25.03;99267.00;1087309;54;20026;-82
2023/06/09 14:29:16;;;;;;;6.78;4.57;;;;;;;31.51;25.13;99270.09;1086799;47;20023;-82
2023/06/09 14:30:21;;;;;;;6.82;3.60;;;;;;;31.37;24.98;99269.22;1086698;47;20031;-84
2023/06/09 14:35:59;;;;;;;6.47;3.15;;;;;;;31.89;24.10;99250.63;1087567;54;20022;-84
2023/06/09 14:37:37;;;;;;;4.88;3.45;;;;;;;31.94;23.80;99251.63;1087375;47;20057;-86
2023/06/09 14:40:34;;;;;;;4.78;3.20;;;;;;;32.23;23.93;99244.97;1080338;47;20030;31
2023/06/09 14:43:09;;;;;;;5.57;3.50;;;;;;;31.98;23.70;99249.91;1107243;39;20787;31
2023/06/09 14:50:18;;;;;;;;;;;;;;;;;;;;;
2023/06/09 14:55:05;;;;;;;7.53;3.65;;;;;;;29.60;25.97;99258.84;1087872;54;20027;-85
2023/06/09 14:57:12;;;;;;;5.35;3.20;;;;;;;29.58;26.14;99244.56;1087558;54;20027;-85
2023/06/09 14:58:24;;;;;;;5.00;2.90;;;;;;;29.70;26.33;99249.69;1083299;47;20070;-86
2023/06/09 14:59:26;;;;;;;5.65;3.10;;;;;;;29.50;26.42;99243.28;1087652;47;20031;-83
2023/06/09 15:00:32;;;;;;;5.33;3.40;;;;;;;29.45;26.69;99248.81;1085689;46;20043;31
2023/06/09 15:14:53;;;;;;;5.55;3.70;;;;;;;29.67;25.98;99231.00;1089258;54;20038;-83
2023/06/09 15:15:54;;;;;;;5.28;3.63;;;;;;;29.60;25.75;99234.06;1089068;46;20026;-83
2023/06/09 15:16:59;;;;;;;5.60;3.65;;;;;;;29.53;25.99;99239.13;1089000;46;20014;-82
2023/06/09 15:18:08;;;;;;;4.75;3.30;;;;;;;29.59;26.06;99237.94;1088920;46;20026;-83
2023/06/09 15:20:29;;;;;;;5.47;3.03;;;;;;;30.09;25.69;99231.34;1097842;38;22332;-83
2023/06/09 15:24:25;;;;;;;6.10;4.30;;;;;;;30.00;25.74;99239.44;1084523;54;20018;31
2023/06/09 15:25:33;;;;;;;5.55;3.58;;;;;;;30.09;25.45;99234.13;1089024;46;20424;-83
2023/06/09 15:27:40;;;;;;;4.93;3.40;;;;;;;29.88;26.02;99242.59;1090156;54;20063;-83
2023/06/09 15:28:44;;;;;;;5.18;3.25;;;;;;;29.46;26.15;99242.19;1089291;46;20979;-84
2023/06/09 15:30:14;;;;;;;6.35;3.00;;;;;;;29.10;25.07;99243.31;1089276;54;20026;-83
2023/06/09 15:31:48;;;;;;;7.32;3.20;;;;;;;28.99;25.04;99240.94;1089029;46;20026;-82
2023/06/09 16:05:17;;;;;;;5.38;3.53;;;;;;;29.03;26.66;99223.56;1091174;38;20256;-84
2023/06/09 16:06:19;;;;;;;5.57;3.00;;;;;;;28.94;26.92;99230.78;1088902;46;20022;-83
2023/06/09 16:07:23;;;;;;;8.65;3.60;;;;;;;28.89;27.32;99233.59;1088842;46;20026;-84
2023/06/09 16:10:41;;;;;;;5.75;3.53;;;;;;;28.91;27.40;99236.84;1088330;46;20010;-83
2023/06/09 16:12:55;;;;;;;6.90;3.90;;;;;;;28.88;27.12;99227.25;1089181;54;20026;-83
2023/06/09 16:14:02;;;;;;;5.00;3.60;;;;;;;28.97;27.48;99229.38;1088747;46;20033;-83
2023/06/09 16:15:08;;;;;;;6.22;3.75;;;;;;;28.75;27.90;99227.91;1088674;54;20065;-83
2023/06/09 16:16:12;;;;;;;6.90;3.83;;;;;;;28.60;28.17;99234.31;1088871;54;20054;-81
2023/06/09 16:17:14;;;;;;;6.13;3.95;;;;;;;28.67;28.50;99225.75;1089153;54;20026;-84
2023/06/09 16:18:21;;;;;;;7.07;3.70;;;;;;;28.65;28.51;99231.50;1089073;54;20114;-81
2023/06/09 16:19:22;;;;;;;6.05;3.80;;;;;;;28.67;28.81;99225.75;1088760;46;20022;-83
2023/06/09 16:20:31;;;;;;;7.38;4.32;;;;;;;28.88;28.67;99229.19;1088576;46;20022;-81
2023/06/09 16:22:38;;;;;;;6.35;3.78;;;;;;;28.83;28.74;99229.22;1089116;46;20048;-82
2023/06/09 16:23:40;;;;;;;7.00;3.85;;;;;;;28.66;28.68;99224.09;1087258;47;20022;-80
2023/06/09 16:24:45;;;;;;;10.23;3.90;;;;;;;28.57;28.94;99221.13;1087391;47;20022;-82
2023/06/09 16:25:46;;;;;;;5.68;3.80;;;;;;;28.51;28.71;99233.25;1087336;54;20034;-84
2023/06/09 16:26:50;;;;;;;6.75;3.60;;;;;;;28.44;28.97;99231.63;1087575;54;20886;-84
2023/06/09 16:27:51;;;;;;;7.85;4.00;;;;;;;28.38;29.03;99232.78;1087508;54;20026;-83
2023/06/09 16:28:55;;;;;;;7.97;3.85;;;;;;;28.36;29.19;99232.22;1087371;47;20053;-82
2023/06/09 16:29:56;;;;;;;9.32;4.18;;;;;;;28.35;29.36;99233.31;1087242;47;20035;-82
2023/06/09 16:31:09;;;;;;;6.90;3.92;;;;;;;28.32;29.37;99225.66;1087198;47;20022;-86